Time;durP1;ratioP1;P1;durP2;ratioP2;P2;SDS_P1;SDS_P2;PMS_P1;PMS_P2;Temp;Humidity;BMP_temperature;BMP_pressure;BME280_temperature;BME280_humidity;BME280_pressure;Samples;Min_cycle;Max_cycle;Signal;HPM_P1;HPM_P2
2022/08/06 00:00:18;;;;;;;11.30;10.40;;;26.50;91.90;;;;;;6225417;28;20236;-59
2022/08/06 00:03:29;;;;;;;10.40;9.50;;;26.60;92.00;;;;;;6224950;28;20311;-59
2022/08/06 00:06:35;;;;;;;10.70;9.70;;;26.60;92.10;;;;;;6225087;28;20228;-59
2022/08/06 00:09:38;;;;;;;10.30;9.50;;;26.50;92.20;;;;;;6224784;28;20248;-60
2022/08/06 00:12:59;;;;;;;9.40;8.70;;;26.50;91.80;;;;;;6225289;28;20236;-59
2022/08/06 00:16:06;;;;;;;10.80;9.90;;;26.40;91.90;;;;;;6228555;28;20184;-59
2022/08/06 00:19:29;;;;;;;10.40;9.70;;;26.40;91.90;;;;;;6229532;28;20580;-59
2022/08/06 00:22:54;;;;;;;10.80;9.90;;;26.30;91.90;;;;;;6220960;28;20241;-60
2022/08/06 00:25:57;;;;;;;10.30;9.60;;;26.30;91.60;;;;;;6229032;28;20582;-61
2022/08/06 00:29:00;;;;;;;10.10;9.50;;;26.30;91.90;;;;;;6229286;28;20228;-61
2022/08/06 00:32:07;;;;;;;10.63;9.97;;;26.20;92.10;;;;;;6229142;28;20233;-61
2022/08/06 00:35:14;;;;;;;10.20;9.57;;;26.20;92.20;;;;;;6230485;28;20311;-60
2022/08/06 00:38:19;;;;;;;9.43;8.80;;;26.10;92.40;;;;;;6229508;28;20247;-60
2022/08/06 00:41:23;;;;;;;10.63;9.93;;;26.10;92.50;;;;;;6229447;28;20681;-60
2022/08/06 00:44:32;;;;;;;10.07;9.30;;;26.00;92.60;;;;;;6229178;28;20233;-60
2022/08/06 00:47:36;;;;;;;11.00;10.20;;;26.00;92.80;;;;;;6229347;28;20247;-60
2022/08/06 00:50:59;;;;;;;9.73;9.10;;;26.00;92.90;;;;;;6228832;28;20229;-61
2022/08/06 00:54:04;;;;;;;9.90;9.17;;;26.00;93.00;;;;;;6228635;28;20228;-61
2022/08/06 00:57:08;;;;;;;10.47;9.77;;;26.00;93.00;;;;;;6228371;28;20221;-61
2022/08/06 01:00:14;;;;;;;9.03;8.33;;;25.90;93.10;;;;;;6229134;28;20224;-61
2022/08/06 01:03:32;;;;;;;9.80;9.10;;;25.80;93.30;;;;;;6228703;28;20692;-61
2022/08/06 01:06:44;;;;;;;10.33;9.63;;;25.80;93.50;;;;;;6226480;28;20221;-60
2022/08/06 01:10:01;;;;;;;10.53;9.83;;;25.70;93.70;;;;;;6226069;28;20241;-61
2022/08/06 01:13:04;;;;;;;10.07;9.27;;;25.70;93.90;;;;;;6227899;28;20557;-60
2022/08/06 01:16:35;;;;;;;11.10;10.30;;;25.60;94.20;;;;;;6226876;28;20239;-60
2022/08/06 01:19:52;;;;;;;10.17;9.47;;;25.50;94.50;;;;;;6228054;28;20217;-60
2022/08/06 01:23:36;;;;;;;10.30;9.60;;;25.40;94.80;;;;;;6228043;28;20241;-60
2022/08/06 01:26:50;;;;;;;10.07;9.30;;;25.40;95.10;;;;;;6222527;28;20247;-60
2022/08/06 01:30:03;;;;;;;9.50;8.80;;;25.30;95.40;;;;;;6228037;28;20247;-60
2022/08/06 01:33:13;;;;;;;10.70;9.90;;;25.20;95.60;;;;;;6228220;28;20850;-60
2022/08/06 01:36:24;;;;;;;11.17;10.37;;;25.20;95.90;;;;;;6228125;28;20239;-60
2022/08/06 01:39:34;;;;;;;9.30;8.70;;;25.20;95.90;;;;;;6228023;28;20315;-60
2022/08/06 01:42:58;;;;;;;10.10;9.40;;;25.30;96.00;;;;;;6227393;28;20244;-60
2022/08/06 01:46:04;;;;;;;9.87;9.17;;;25.20;95.60;;;;;;6227849;28;20220;-60
2022/08/06 01:49:09;;;;;;;10.10;9.40;;;25.20;95.80;;;;;;6226893;28;20237;-59
2022/08/06 01:52:34;;;;;;;10.13;9.43;;;25.20;95.90;;;;;;6226662;28;20572;-59
2022/08/06 01:55:42;;;;;;;12.07;11.07;;;25.20;95.80;;;;;;6223626;28;20232;-61
2022/08/06 01:59:05;;;;;;;10.47;9.70;;;25.20;95.90;;;;;;6226822;28;20239;-60
2022/08/06 02:02:16;;;;;;;9.53;8.83;;;25.20;96.20;;;;;;6224001;28;20573;-60
2022/08/06 02:05:21;;;;;;;9.50;8.90;;;25.20;96.10;;;;;;6226535;28;20228;-60
2022/08/06 02:08:30;;;;;;;9.90;9.20;;;25.20;96.20;;;;;;6224276;28;20680;-60
2022/08/06 02:11:45;;;;;;;9.27;8.67;;;25.20;96.20;;;;;;6225062;28;20227;-60
2022/08/06 02:15:14;;;;;;;9.23;8.60;;;25.20;96.30;;;;;;6226520;28;20236;-60
2022/08/06 02:18:20;;;;;;;9.43;8.83;;;25.20;96.40;;;;;;6226303;28;20217;-60
2022/08/06 02:21:39;;;;;;;9.93;9.23;;;25.20;96.40;;;;;;6227002;28;20260;-60
2022/08/06 02:24:44;;;;;;;9.57;8.97;;;25.20;96.30;;;;;;6227059;28;20689;-61
2022/08/06 02:27:50;;;;;;;10.93;10.13;;;25.20;96.20;;;;;;6227123;28;20229;-60
2022/08/06 02:31:01;;;;;;;10.00;9.10;;;25.10;96.00;;;;;;6227001;28;20201;-60
2022/08/06 02:34:09;;;;;;;9.03;8.43;;;25.10;96.00;;;;;;6226852;28;20236;-60
2022/08/06 02:37:22;;;;;;;8.60;7.83;;;25.10;96.00;;;;;;6226435;28;20676;-60
2022/08/06 02:40:50;;;;;;;9.07;8.47;;;25.10;96.00;;;;;;6226797;28;20232;-60
2022/08/06 02:43:59;;;;;;;9.13;8.53;;;24.90;96.00;;;;;;6226820;28;20233;-60
2022/08/06 02:47:08;;;;;;;9.80;9.10;;;24.90;96.30;;;;;;6226730;28;20243;-60
2022/08/06 02:50:27;;;;;;;9.97;9.10;;;24.90;96.00;;;;;;6226508;28;20303;-60
2022/08/06 02:53:38;;;;;;;10.63;9.67;;;24.90;95.90;;;;;;6226278;28;20692;-60
2022/08/06 02:57:03;;;;;;;9.23;8.63;;;25.00;95.50;;;;;;6226366;28;20239;-60
2022/08/06 03:00:10;;;;;;;9.40;8.70;;;24.90;95.10;;;;;;6226629;28;20244;-60
2022/08/06 03:03:15;;;;;;;9.57;8.83;;;25.00;93.40;;;;;;6226480;28;20233;-60
2022/08/06 03:06:41;;;;;;;9.17;8.57;;;25.10;92.80;;;;;;6225950;28;20245;-60
2022/08/06 03:09:49;;;;;;;9.60;8.90;;;25.30;91.80;;;;;;6226197;28;20233;-60
2022/08/06 03:12:55;;;;;;;8.67;7.83;;;25.40;91.40;;;;;;6226101;28;20235;-60
2022/08/06 03:16:07;;;;;;;8.63;7.83;;;25.50;91.00;;;;;;6225906;28;20524;-60
2022/08/06 03:19:27;;;;;;;8.97;8.07;;;25.60;90.70;;;;;;6226091;28;20228;-60
2022/08/06 03:22:53;;;;;;;7.63;7.03;;;25.70;90.20;;;;;;6225691;28;20245;-60
2022/08/06 03:25:59;;;;;;;8.70;8.00;;;25.80;89.50;;;;;;6226636;28;20679;-60
2022/08/06 03:29:07;;;;;;;8.20;7.50;;;25.90;88.90;;;;;;6226158;28;20224;-60
2022/08/06 03:32:13;;;;;;;8.03;7.47;;;25.90;88.60;;;;;;6221666;28;20240;-60
2022/08/06 03:35:37;;;;;;;7.53;6.90;;;25.90;88.40;;;;;;6225285;28;20229;-60
2022/08/06 03:39:02;;;;;;;9.03;7.87;;;25.90;87.90;;;;;;6225399;28;20241;-60
2022/08/06 03:42:07;;;;;;;7.90;7.20;;;26.00;87.70;;;;;;6224940;28;20244;-60
2022/08/06 03:45:12;;;;;;;7.50;6.73;;;26.00;87.30;;;;;;6225308;28;20224;-60
2022/08/06 03:48:38;;;;;;;8.07;7.57;;;26.00;86.80;;;;;;6225009;28;20236;-60
2022/08/06 03:51:45;;;;;;;8.30;7.63;;;26.00;87.70;;;;;;6229615;28;20278;-60
2022/08/06 03:55:02;;;;;;;7.97;7.33;;;26.00;86.70;;;;;;6230381;28;20219;-60
2022/08/06 03:58:12;;;;;;;8.23;7.30;;;26.00;86.30;;;;;;6230248;28;20189;-60
2022/08/06 04:01:33;;;;;;;7.30;6.80;;;26.00;86.50;;;;;;6230555;28;20228;-61
2022/08/06 04:04:47;;;;;;;7.77;7.07;;;26.10;86.40;;;;;;6230096;28;20315;-60
2022/08/06 04:07:53;;;;;;;7.00;6.33;;;26.10;86.30;;;;;;6230376;28;20290;-60
2022/08/06 04:11:01;;;;;;;7.10;6.60;;;26.10;86.20;;;;;;6230563;28;20267;-60
2022/08/06 04:14:09;;;;;;;7.70;7.10;;;26.00;86.00;;;;;;6230055;28;20236;-60
2022/08/06 04:17:14;;;;;;;7.50;6.77;;;26.00;86.30;;;;;;6229952;28;20232;-60
2022/08/06 04:20:22;;;;;;;7.60;6.87;;;26.10;86.10;;;;;;6229862;28;20232;-60
2022/08/06 04:23:45;;;;;;;7.00;6.50;;;26.10;86.00;;;;;;6229186;28;20662;-60
2022/08/06 04:26:54;;;;;;;7.40;6.90;;;26.10;86.10;;;;;;6229670;28;20355;-60
2022/08/06 04:29:59;;;;;;;7.40;6.90;;;26.20;85.80;;;;;;6229939;28;20228;-60
2022/08/06 04:33:09;;;;;;;5.90;5.50;;;26.20;85.50;;;;;;6229849;28;20232;-60
2022/08/06 04:36:14;;;;;;;6.70;6.30;;;26.30;84.90;;;;;;6229679;28;20240;-60
2022/08/06 04:39:26;;;;;;;6.20;5.60;;;26.30;84.70;;;;;;6215965;28;20237;-60
2022/08/06 04:42:43;;;;;;;6.70;6.20;;;26.40;84.70;;;;;;6229427;28;20303;-60
2022/08/06 04:45:47;;;;;;;6.03;5.53;;;26.40;84.10;;;;;;6229174;28;20237;-60
2022/08/06 04:49:11;;;;;;;9.40;5.80;;;26.50;83.70;;;;;;6228896;28;20228;-60
2022/08/06 04:52:23;;;;;;;5.33;4.93;;;26.50;82.60;;;;;;6229167;28;20331;-60
2022/08/06 04:55:48;;;;;;;5.83;5.30;;;26.50;82.30;;;;;;6229289;28;20220;-60
2022/08/06 04:59:07;;;;;;;5.47;4.97;;;26.70;81.80;;;;;;6229315;28;20241;-60
2022/08/06 05:02:12;;;;;;;6.00;5.50;;;26.80;81.30;;;;;;6228849;28;20310;-60
2022/08/06 05:05:17;;;;;;;4.83;4.53;;;26.90;81.40;;;;;;6229072;28;20274;-60
2022/08/06 05:08:25;;;;;;;5.13;4.73;;;26.90;80.60;;;;;;6229197;28;20236;-60
2022/08/06 05:11:34;;;;;;;5.03;4.73;;;27.10;79.40;;;;;;6228812;28;20310;-60
2022/08/06 05:15:04;;;;;;;4.73;4.33;;;27.20;79.10;;;;;;6228711;28;20228;-60
2022/08/06 05:18:14;;;;;;;4.60;4.20;;;27.30;78.70;;;;;;6228404;28;20374;-60
2022/08/06 05:21:39;;;;;;;4.90;4.50;;;27.30;78.10;;;;;;6228350;28;20243;-60
2022/08/06 05:25:03;;;;;;;5.50;4.87;;;27.40;78.00;;;;;;6227734;28;20221;-60
2022/08/06 05:28:18;;;;;;;5.03;4.73;;;27.50;77.60;;;;;;6228654;28;20368;-62
2022/08/06 05:31:34;;;;;;;6.03;4.00;;;27.50;77.00;;;;;;6227945;28;20239;-60
2022/08/06 05:34:42;;;;;;;4.30;4.00;;;27.50;76.70;;;;;;6228491;28;20345;-60
2022/08/06 05:37:53;;;;;;;4.07;3.63;;;27.60;76.50;;;;;;6228234;28;20552;-60
2022/08/06 05:41:08;;;;;;;4.13;3.83;;;27.70;75.80;;;;;;6218928;28;20692;-60
2022/08/06 05:44:12;;;;;;;5.87;4.33;;;27.60;75.60;;;;;;6227773;28;20232;-60
2022/08/06 05:47:22;;;;;;;4.07;3.80;;;27.80;75.60;;;;;;6227814;28;20237;-60
2022/08/06 05:50:31;;;;;;;4.03;3.73;;;28.00;74.50;;;;;;6227702;28;20554;-61
2022/08/06 05:53:39;;;;;;;4.47;4.10;;;28.30;73.70;;;;;;6227480;28;20590;-60
2022/08/06 05:57:10;;;;;;;4.13;3.60;;;28.50;72.50;;;;;;6225946;28;20228;-60
2022/08/06 06:00:20;;;;;;;4.00;3.70;;;28.60;71.70;;;;;;6226255;28;20229;-61
2022/08/06 06:03:46;;;;;;;4.20;3.90;;;28.80;71.70;;;;;;6226980;28;20240;-61
2022/08/06 06:06:52;;;;;;;4.00;3.80;;;29.20;71.20;;;;;;6227646;28;20228;-61
2022/08/06 06:09:57;;;;;;;3.90;3.70;;;29.40;69.10;;;;;;6227362;28;20302;-62
2022/08/06 06:13:06;;;;;;;3.40;3.20;;;29.60;68.30;;;;;;6226312;28;20577;-61
2022/08/06 06:16:35;;;;;;;3.70;3.30;;;29.80;67.40;;;;;;6226914;28;20565;-61
2022/08/06 06:19:47;;;;;;;3.92;3.40;;;30.20;66.70;;;;;;6226995;28;20232;-61
2022/08/06 06:23:01;;;;;;;4.53;3.45;;;30.30;65.20;;;;;;6226775;28;20243;-61
2022/08/06 06:26:16;;;;;;;3.85;3.00;;;30.40;65.10;;;;;;6227081;28;20274;-62
2022/08/06 06:29:41;;;;;;;3.65;3.35;;;30.60;64.00;;;;;;6227077;28;20233;-63
2022/08/06 06:33:19;;;;;;;3.42;3.22;;;30.90;62.80;;;;;;6227004;28;20683;-61
2022/08/06 06:36:47;;;;;;;3.70;2.78;;;30.70;62.80;;;;;;6226704;28;20256;-60
2022/08/06 06:40:02;;;;;;;2.90;2.70;;;30.30;63.70;;;;;;6226813;28;20208;-61
2022/08/06 06:43:21;;;;;;;3.10;2.90;;;29.90;64.70;;;;;;6222482;28;20564;-59
2022/08/06 06:46:35;;;;;;;3.07;2.87;;;29.70;65.20;;;;;;6226589;28;20233;-62
2022/08/06 06:49:52;;;;;;;3.00;2.80;;;29.70;65.30;;;;;;6226776;28;20610;-60
2022/08/06 06:53:07;;;;;;;3.80;3.17;;;29.50;65.60;;;;;;6226709;28;20290;-62
2022/08/06 06:56:16;;;;;;;2.47;2.27;;;29.40;65.90;;;;;;6226657;28;20228;-61
2022/08/06 06:59:26;;;;;;;5.22;2.78;;;29.60;66.20;;;;;;6226383;28;20593;-61
2022/08/06 07:02:50;;;;;;;2.90;2.70;;;30.20;64.50;;;;;;6226221;28;20231;-61
2022/08/06 07:05:54;;;;;;;2.65;2.45;;;30.40;63.20;;;;;;6226355;28;20236;-63
2022/08/06 07:09:17;;;;;;;2.80;2.60;;;30.50;62.70;;;;;;6226208;28;20665;-63
2022/08/06 07:12:43;;;;;;;2.63;2.45;;;30.60;62.90;;;;;;6226137;28;20246;-63
2022/08/06 07:15:54;;;;;;;2.30;2.10;;;31.00;61.10;;;;;;6225922;28;20225;-62
2022/08/06 07:19:01;;;;;;;2.67;2.47;;;30.90;61.10;;;;;;6225263;28;20189;-63
2022/08/06 07:22:06;;;;;;;2.20;2.10;;;31.30;61.40;;;;;;6223777;28;20220;-63
2022/08/06 07:25:14;;;;;;;2.85;2.65;;;31.60;59.60;;;;;;6225651;28;20228;-63
2022/08/06 07:28:27;;;;;;;2.28;2.17;;;31.80;59.10;;;;;;6223634;28;20355;-63
2022/08/06 07:31:32;;;;;;;2.78;2.58;;;31.90;58.80;;;;;;6225676;28;20229;-62
2022/08/06 07:34:39;;;;;;;2.72;2.25;;;32.10;58.50;;;;;;6225728;28;20236;-62
2022/08/06 07:37:51;;;;;;;2.75;2.20;;;33.50;57.40;;;;;;6225898;28;20239;-64
2022/08/06 07:41:00;;;;;;;2.65;2.45;;;35.00;53.80;;;;;;6225567;28;20572;-63
2022/08/06 07:44:12;;;;;;;2.53;2.30;;;36.80;50.90;;;;;;6225828;28;20237;-64
2022/08/06 07:47:21;;;;;;;2.30;2.10;;;37.00;49.00;;;;;;6225498;28;20233;-64
2022/08/06 07:50:33;;;;;;;3.70;2.20;;;36.90;48.10;;;;;;6225335;28;20232;-64
2022/08/06 07:53:38;;;;;;;2.95;1.85;;;36.50;48.30;;;;;;6225104;28;20310;-64
2022/08/06 07:57:01;;;;;;;2.17;2.08;;;35.80;48.70;;;;;;6225355;28;20224;-63
2022/08/06 08:00:06;;;;;;;3.50;2.25;;;35.20;49.80;;;;;;6224578;28;20227;-63
2022/08/06 08:07:00;;;;;;;2.10;2.00;;;33.80;52.10;;;;;;6222382;28;20220;-62
2022/08/06 08:10:04;;;;;;;2.90;2.70;;;33.10;53.60;;;;;;6224781;28;20189;-62
2022/08/06 08:13:10;;;;;;;2.00;1.90;;;32.50;55.20;;;;;;6223966;28;20557;-62
2022/08/06 08:16:16;;;;;;;2.50;2.22;;;32.10;55.90;;;;;;6223213;28;20247;-64
2022/08/06 08:19:32;;;;;;;2.60;2.40;;;31.90;56.60;;;;;;6222650;28;20221;-64
2022/08/06 08:22:39;;;;;;;2.95;2.75;;;31.60;56.80;;;;;;6224785;28;20263;-64
2022/08/06 08:25:52;;;;;;;2.60;2.40;;;31.40;57.00;;;;;;6223320;28;20229;-64
2022/08/06 08:28:57;;;;;;;4.10;2.75;;;31.10;58.10;;;;;;6224914;28;20688;-63
2022/08/06 08:32:02;;;;;;;2.60;2.40;;;30.90;58.50;;;;;;6225090;28;20247;-64
2022/08/06 08:35:18;;;;;;;3.08;2.65;;;30.60;58.90;;;;;;6225660;28;20694;-63
2022/08/06 08:38:21;;;;;;;3.92;2.83;;;30.40;59.60;;;;;;6229995;28;20224;-63
2022/08/06 08:41:34;;;;;;;3.38;3.00;;;30.20;60.50;;;;;;6229095;28;20243;-63
2022/08/06 08:44:55;;;;;;;2.80;2.60;;;30.10;60.80;;;;;;6229555;28;20232;-63
2022/08/06 08:48:00;;;;;;;2.40;2.30;;;29.90;60.80;;;;;;6229759;28;20243;-63
2022/08/06 08:51:06;;;;;;;3.13;2.93;;;29.60;61.50;;;;;;6229349;28;20236;-63
2022/08/06 08:54:10;;;;;;;3.20;2.90;;;29.50;62.20;;;;;;6220120;28;20247;-62
2022/08/06 08:57:20;;;;;;;3.60;3.30;;;29.40;62.80;;;;;;6229667;28;20691;-62
2022/08/06 09:00:45;;;;;;;4.13;2.37;;;29.20;63.90;;;;;;6229178;28;20253;-62
2022/08/06 09:03:54;;;;;;;2.93;2.73;;;29.00;64.60;;;;;;6224984;28;20351;-62
2022/08/06 09:06:58;;;;;;;2.93;2.60;;;28.80;66.20;;;;;;6227657;28;20204;-62
2022/08/06 09:10:02;;;;;;;3.47;2.60;;;28.70;66.90;;;;;;6227731;28;20221;-63
2022/08/06 09:13:05;;;;;;;2.80;2.60;;;28.50;67.30;;;;;;6226912;28;20232;-62
2022/08/06 09:16:32;;;;;;;3.10;2.23;;;28.40;68.50;;;;;;6226802;28;20260;-60
2022/08/06 09:19:35;;;;;;;3.30;2.90;;;28.10;69.40;;;;;;6228657;28;20224;-60
2022/08/06 09:22:48;;;;;;;2.60;2.40;;;27.90;70.40;;;;;;6225379;28;20220;-60
2022/08/06 09:25:54;;;;;;;3.17;2.87;;;27.80;71.20;;;;;;6227633;28;20225;-60
2022/08/06 09:29:01;;;;;;;3.47;3.17;;;27.90;71.60;;;;;;6227841;28;20308;-60
2022/08/06 09:32:41;;;;;;;2.73;2.53;;;28.00;71.70;;;;;;6226171;28;20334;-60
2022/08/06 09:36:01;;;;;;;3.00;2.80;;;28.00;72.30;;;;;;6225922;28;20582;-60
2022/08/06 09:39:04;;;;;;;3.17;2.40;;;28.00;72.90;;;;;;6227491;28;20231;-60
2022/08/06 09:42:13;;;;;;;3.10;2.90;;;28.00;72.50;;;;;;6224905;28;20266;-60
2022/08/06 09:45:18;;;;;;;3.00;2.80;;;28.00;72.90;;;;;;6227544;28;20229;-60
2022/08/06 09:48:58;;;;;;;2.90;2.70;;;27.90;73.30;;;;;;6224965;28;20217;-60
2022/08/06 09:52:21;;;;;;;2.90;2.67;;;27.70;73.80;;;;;;6226773;28;20258;-60
2022/08/06 09:55:30;;;;;;;3.57;3.27;;;27.50;74.50;;;;;;6222501;28;20557;-60
2022/08/06 09:58:40;;;;;;;4.13;3.83;;;27.40;75.40;;;;;;6226751;28;20823;-60
2022/08/06 10:01:45;;;;;;;3.10;2.90;;;27.30;76.30;;;;;;6226647;28;20581;-60
2022/08/06 10:04:53;;;;;;;3.10;2.90;;;27.20;77.40;;;;;;6224549;28;20266;-60
2022/08/06 10:08:07;;;;;;;3.10;2.90;;;27.00;79.00;;;;;;6226708;28;20224;-59
2022/08/06 10:11:13;;;;;;;4.30;3.90;;;27.00;79.20;;;;;;6224299;28;20228;-59
2022/08/06 10:14:23;;;;;;;3.43;3.10;;;27.00;80.30;;;;;;6227243;28;20240;-59
2022/08/06 10:17:28;;;;;;;4.13;3.80;;;26.90;82.90;;;;;;6227083;28;20247;-59
2022/08/06 10:21:03;;;;;;;4.03;3.73;;;26.80;85.90;;;;;;6226261;28;20240;-60
2022/08/06 10:24:11;;;;;;;4.10;3.80;;;26.80;87.60;;;;;;6226365;28;20259;-60
2022/08/06 10:27:17;;;;;;;4.77;4.37;;;26.80;88.10;;;;;;6224534;28;20306;-59
2022/08/06 10:30:22;;;;;;;3.70;3.40;;;26.70;89.70;;;;;;6227132;28;20232;-59
2022/08/06 10:33:32;;;;;;;5.47;4.83;;;26.60;90.40;;;;;;6226434;28;20232;-59
2022/08/06 10:36:45;;;;;;;4.50;4.10;;;26.60;90.70;;;;;;6226757;28;20609;-59
2022/08/06 10:39:55;;;;;;;4.37;4.07;;;26.60;90.80;;;;;;6225764;28;20278;-59
2022/08/06 10:43:12;;;;;;;4.70;4.33;;;26.80;90.70;;;;;;6225893;28;20556;-59
2022/08/06 10:46:17;;;;;;;4.63;3.67;;;26.90;90.50;;;;;;6225754;28;20776;-59
2022/08/06 10:49:27;;;;;;;4.00;3.70;;;26.90;90.40;;;;;;6225936;28;20366;-58
2022/08/06 10:52:53;;;;;;;4.37;4.00;;;27.10;90.30;;;;;;6224276;28;20236;-59
2022/08/06 10:55:58;;;;;;;4.10;3.70;;;27.30;90.00;;;;;;6225323;28;20220;-59
2022/08/06 10:59:02;;;;;;;4.40;4.00;;;27.40;89.50;;;;;;6220687;28;20228;-60
2022/08/06 11:02:13;;;;;;;4.00;3.70;;;27.50;88.30;;;;;;6225433;28;20237;-60
2022/08/06 11:05:23;;;;;;;4.50;3.97;;;27.70;88.20;;;;;;6224941;28;20877;-60
2022/08/06 11:08:51;;;;;;;4.47;4.00;;;27.90;87.60;;;;;;6223013;28;20226;-60
2022/08/06 11:12:19;;;;;;;4.13;3.73;;;28.20;87.00;;;;;;6224692;28;20599;-58
2022/08/06 11:15:25;;;;;;;4.30;3.90;;;28.60;85.90;;;;;;6225229;28;20224;-60
2022/08/06 11:18:58;;;;;;;4.27;3.90;;;28.90;85.80;;;;;;6225254;28;20221;-59
2022/08/06 11:22:09;;;;;;;4.10;3.80;;;29.00;84.20;;;;;;6224778;28;20212;-61
2022/08/06 11:25:15;;;;;;;4.33;3.70;;;29.20;83.20;;;;;;6225349;28;20239;-60
2022/08/06 11:29:03;;;;;;;5.63;4.40;;;29.30;82.80;;;;;;6223509;28;20228;-60
2022/08/06 11:32:44;;;;;;;4.37;4.00;;;29.40;82.30;;;;;;6224886;28;20224;-59
2022/08/06 11:35:49;;;;;;;4.47;4.07;;;29.50;82.00;;;;;;6224121;28;20591;-60
2022/08/06 11:39:00;;;;;;;3.90;3.60;;;29.50;82.00;;;;;;6222312;28;20228;-59
2022/08/06 11:42:41;;;;;;;4.43;3.90;;;29.40;82.00;;;;;;6222049;28;20672;-59
2022/08/06 11:46:21;;;;;;;3.23;2.93;;;29.50;82.70;;;;;;6223649;28;20220;-60
2022/08/06 11:49:40;;;;;;;3.70;3.40;;;29.50;82.20;;;;;;6224877;28;20232;-60
2022/08/06 11:52:46;;;;;;;4.20;3.60;;;29.80;81.60;;;;;;6224625;28;20233;-59
2022/08/06 11:56:05;;;;;;;4.37;4.00;;;30.00;80.70;;;;;;6225526;28;20212;-60
2022/08/06 11:59:16;;;;;;;4.15;3.80;;;30.20;79.60;;;;;;6221128;28;20679;-60
2022/08/06 12:03:02;;;;;;;4.17;3.77;;;30.20;79.10;;;;;;6224678;28;20242;-60
2022/08/06 12:06:21;;;;;;;4.73;4.23;;;30.10;78.50;;;;;;6213286;28;20596;-58
2022/08/06 12:09:36;;;;;;;4.10;3.70;;;29.80;79.40;;;;;;6222887;28;20307;-58
2022/08/06 12:12:45;;;;;;;4.53;4.13;;;29.60;80.80;;;;;;6228614;28;20229;-58
2022/08/06 12:15:53;;;;;;;4.57;4.10;;;29.40;81.40;;;;;;6227714;28;20585;-58
2022/08/06 12:19:15;;;;;;;4.73;4.23;;;29.00;83.10;;;;;;6228151;28;20260;-58
2022/08/06 12:22:20;;;;;;;4.50;4.20;;;28.70;84.20;;;;;;6228975;28;20533;-59
2022/08/06 12:25:31;;;;;;;4.90;4.40;;;28.50;84.70;;;;;;6226918;28;20300;-59
2022/08/06 12:28:34;;;;;;;4.53;4.23;;;28.50;85.30;;;;;;6229285;28;20231;-58
2022/08/06 12:31:40;;;;;;;4.63;4.23;;;28.40;85.80;;;;;;6229318;28;20304;-59
2022/08/06 12:34:54;;;;;;;4.80;3.83;;;28.40;85.80;;;;;;6228550;28;20316;-58
2022/08/06 12:38:01;;;;;;;3.87;3.57;;;28.50;85.90;;;;;;6229186;28;20355;-58
2022/08/06 12:41:07;;;;;;;3.13;2.93;;;28.40;83.90;;;;;;6226408;28;20220;-58
2022/08/06 12:44:14;;;;;;;3.60;3.30;;;28.40;83.50;;;;;;6228335;28;20228;-59
2022/08/06 12:47:39;;;;;;;3.40;3.20;;;28.30;83.60;;;;;;6227703;28;20225;-60
2022/08/06 12:51:04;;;;;;;2.80;2.60;;;28.30;84.90;;;;;;6229033;28;20232;-58
2022/08/06 12:54:16;;;;;;;3.40;3.20;;;28.30;84.00;;;;;;6224426;28;20684;-58
2022/08/06 12:57:30;;;;;;;3.10;2.90;;;28.20;86.40;;;;;;6227974;28;20315;-59
2022/08/06 13:00:57;;;;;;;3.97;3.67;;;27.90;89.40;;;;;;6227884;28;20228;-59
2022/08/06 13:04:04;;;;;;;3.23;3.03;;;27.60;91.20;;;;;;6227265;28;20248;-59
2022/08/06 13:07:11;;;;;;;3.33;3.00;;;27.50;91.50;;;;;;6224163;28;20200;-59
2022/08/06 13:10:17;;;;;;;2.73;2.53;;;27.40;91.30;;;;;;6225847;28;20279;-58
2022/08/06 13:13:39;;;;;;;3.17;2.90;;;27.40;91.10;;;;;;6225937;28;20232;-58
2022/08/06 13:17:12;;;;;;;2.87;2.67;;;27.50;91.10;;;;;;6226746;28;20239;-58
2022/08/06 13:20:41;;;;;;;2.80;2.60;;;27.50;91.10;;;;;;6225070;28;20231;-59
2022/08/06 13:23:48;;;;;;;2.63;2.43;;;27.40;91.40;;;;;;6227031;28;20239;-59
2022/08/06 13:26:54;;;;;;;3.30;3.00;;;27.40;91.10;;;;;;6227356;28;20304;-59
2022/08/06 13:30:02;;;;;;;2.80;2.60;;;27.30;91.50;;;;;;6227052;28;20236;-59
2022/08/06 13:33:26;;;;;;;3.03;2.83;;;27.20;91.50;;;;;;6226357;28;20236;-59
2022/08/06 13:36:32;;;;;;;2.50;2.30;;;27.20;91.90;;;;;;6227462;28;20228;-59
2022/08/06 13:39:52;;;;;;;3.00;2.63;;;27.20;91.80;;;;;;6227601;28;20229;-58
2022/08/06 13:42:58;;;;;;;2.80;2.60;;;27.20;91.80;;;;;;6227794;28;20367;-57
2022/08/06 13:46:08;;;;;;;2.80;2.60;;;27.10;92.30;;;;;;6227829;28;20200;-58
2022/08/06 13:49:19;;;;;;;2.30;2.10;;;27.20;92.30;;;;;;6227953;28;20314;-58
2022/08/06 13:52:24;;;;;;;2.90;2.67;;;27.30;92.20;;;;;;6227165;28;20232;-59
2022/08/06 13:55:28;;;;;;;2.73;2.43;;;27.40;91.70;;;;;;6226820;28;20229;-59
2022/08/06 13:58:52;;;;;;;2.57;2.37;;;27.30;91.80;;;;;;6224432;28;20228;-59
2022/08/06 14:02:00;;;;;;;2.53;2.27;;;27.30;91.70;;;;;;6224683;28;20248;-59
2022/08/06 14:05:04;;;;;;;2.57;2.37;;;27.20;92.00;;;;;;6227061;28;20680;-61
2022/08/06 14:08:23;;;;;;;2.57;2.37;;;27.10;92.30;;;;;;6222201;28;20225;-59
2022/08/06 14:11:37;;;;;;;2.17;1.97;;;27.10;92.30;;;;;;6226845;28;20241;-60
2022/08/06 14:14:41;;;;;;;2.70;2.50;;;27.30;92.20;;;;;;6213968;28;20275;-60
2022/08/06 14:17:50;;;;;;;2.57;2.37;;;27.20;92.00;;;;;;6226885;28;20239;-60
2022/08/06 14:20:53;;;;;;;1.80;1.70;;;27.30;91.90;;;;;;6226982;28;20239;-60
2022/08/06 14:23:58;;;;;;;2.50;2.30;;;27.30;91.70;;;;;;6226641;28;20243;-60
2022/08/06 14:27:04;;;;;;;2.63;2.17;;;27.40;91.60;;;;;;6226987;28;20240;-61
2022/08/06 14:30:27;;;;;;;2.73;2.37;;;27.60;91.20;;;;;;6226563;28;20244;-61
2022/08/06 14:33:35;;;;;;;2.07;1.77;;;27.70;91.20;;;;;;6226601;28;20244;-60
2022/08/06 14:36:49;;;;;;;2.20;1.57;;;27.90;90.80;;;;;;6227006;28;20240;-61
2022/08/06 14:39:54;;;;;;;2.10;2.00;;;28.00;90.10;;;;;;6226176;28;20752;-62
2022/08/06 14:46:22;;;;;;;2.03;1.87;;;28.20;88.90;;;;;;6226697;28;20232;-60
2022/08/06 14:49:28;;;;;;;1.77;1.67;;;28.20;87.60;;;;;;6221311;28;20236;-60
2022/08/06 14:52:51;;;;;;;1.90;1.80;;;28.20;88.20;;;;;;6225723;28;20251;-60
2022/08/06 14:55:59;;;;;;;2.10;2.00;;;28.20;87.80;;;;;;6226225;28;20570;-59
2022/08/06 14:59:10;;;;;;;2.40;2.20;;;27.90;89.60;;;;;;6226388;28;20233;-60
2022/08/06 15:02:13;;;;;;;1.80;1.70;;;27.80;89.50;;;;;;6226192;28;20243;-60
2022/08/06 15:05:17;;;;;;;2.00;1.80;;;27.50;90.20;;;;;;6225643;28;20294;-60
2022/08/06 15:08:40;;;;;;;1.70;1.60;;;27.40;90.50;;;;;;6223522;28;20236;-59
2022/08/06 15:11:52;;;;;;;2.40;1.73;;;27.50;90.40;;;;;;6225646;28;20732;-66
2022/08/06 15:15:03;;;;;;;3.10;2.90;;;27.50;90.70;;;;;;6226023;28;20229;-60
2022/08/06 15:18:07;;;;;;;6.60;6.00;;;27.60;90.10;;;;;;6216275;28;20243;-62
2022/08/06 15:21:28;;;;;;;4.77;4.47;;;27.70;89.90;;;;;;6225476;28;20233;-60
2022/08/06 15:24:51;;;;;;;2.90;2.70;;;27.70;90.10;;;;;;6176675;28;20245;-60
2022/08/06 15:27:58;;;;;;;8.77;3.43;;;27.70;89.80;;;;;;6177262;28;20229;-61
2022/08/06 15:31:03;;;;;;;2.23;2.00;;;27.70;89.70;;;;;;6174425;28;20232;-60
2022/08/06 15:34:07;;;;;;;1.30;1.20;;;27.40;89.90;;;;;;6177443;28;20241;-60
2022/08/06 15:37:15;;;;;;;1.57;1.47;;;27.50;90.00;;;;;;6176840;28;20666;-60
2022/08/06 15:40:39;;;;;;;1.53;1.43;;;27.70;89.50;;;;;;6177067;28;20226;-61
2022/08/06 15:43:46;;;;;;;1.90;1.70;;;27.60;90.00;;;;;;6177775;28;20324;-61
2022/08/06 15:46:54;;;;;;;3.00;1.77;;;27.80;89.30;;;;;;6175580;28;20332;-60
2022/08/06 15:49:58;;;;;;;2.00;1.60;;;27.80;88.70;;;;;;6176453;28;20745;-62
2022/08/06 15:53:06;;;;;;;1.80;1.60;;;27.90;88.50;;;;;;6175621;28;20234;-60
2022/08/06 15:56:26;;;;;;;7.60;2.50;;;28.00;87.70;;;;;;6177679;28;20234;-59
2022/08/06 15:59:42;;;;;;;2.90;1.60;;;28.20;87.80;;;;;;6177230;28;20285;-63
2022/08/06 16:02:54;;;;;;;1.60;1.50;;;28.10;87.00;;;;;;6176929;28;20238;-61
2022/08/06 16:05:57;;;;;;;1.67;1.57;;;28.10;86.80;;;;;;6176144;28;20240;-60
2022/08/06 16:09:14;;;;;;;1.43;1.33;;;28.20;86.10;;;;;;6176266;28;20225;-60
2022/08/06 16:12:29;;;;;;;2.57;1.70;;;28.20;86.50;;;;;;6174247;28;20226;-60
2022/08/06 16:15:34;;;;;;;1.53;1.43;;;28.00;86.70;;;;;;6176684;28;20248;-61
2022/08/06 16:18:39;;;;;;;1.70;1.60;;;28.00;87.00;;;;;;6177401;28;20225;-60
2022/08/06 16:21:51;;;;;;;1.53;1.43;;;27.80;87.40;;;;;;6173251;28;20549;-60
2022/08/06 16:24:55;;;;;;;4.20;1.70;;;27.60;88.80;;;;;;6225095;28;20232;-59
2022/08/06 16:27:59;;;;;;;3.57;1.70;;;27.70;88.30;;;;;;6224882;28;20645;-59
2022/08/06 16:31:03;;;;;;;2.00;1.60;;;27.80;87.90;;;;;;6224806;28;20224;-61
2022/08/06 16:34:18;;;;;;;1.63;1.53;;;27.70;87.60;;;;;;6224753;28;20294;-61
2022/08/06 16:37:32;;;;;;;1.90;1.80;;;27.60;87.80;;;;;;6223719;28;20224;-59
2022/08/06 16:40:41;;;;;;;1.93;1.80;;;27.50;87.20;;;;;;6222910;28;20680;-60
2022/08/06 16:43:55;;;;;;;2.13;1.93;;;27.40;88.70;;;;;;6221646;28;20696;-59
2022/08/06 16:46:59;;;;;;;1.93;1.50;;;27.30;88.20;;;;;;6222452;28;20228;-59